createdAt,value
2023-05-02T00:00:31.614Z,61.39
2023-05-02T00:01:19.875Z,61.34
2023-05-02T00:01:53.765Z,61.34
2023-05-02T00:02:28.335Z,61.36
2023-05-02T00:03:02.028Z,61.38
2023-05-02T00:03:35.520Z,61.39
2023-05-02T00:04:08.884Z,61.36
2023-05-02T00:04:42.293Z,61.31
2023-05-02T00:05:15.528Z,61.32
2023-05-02T00:05:48.695Z,61.35
2023-05-02T00:06:22.126Z,61.37
2023-05-02T00:06:55.619Z,61.38
2023-05-02T00:07:28.931Z,61.35
2023-05-02T00:08:02.110Z,61.32
2023-05-02T00:08:35.262Z,61.29
2023-05-02T00:09:09.042Z,61.26
2023-05-02T00:09:42.455Z,61.25
2023-05-02T00:10:15.692Z,61.27
2023-05-02T00:10:49.341Z,61.28
2023-05-02T00:11:23.101Z,61.27
2023-05-02T00:11:56.234Z,61.24
2023-05-02T00:12:29.473Z,61.23
2023-05-02T00:13:02.708Z,61.25
2023-05-02T00:13:35.877Z,61.27
2023-05-02T00:14:08.951Z,61.25
2023-05-02T00:14:42.082Z,61.22
2023-05-02T00:15:15.469Z,61.22
2023-05-02T00:15:49.125Z,61.23
2023-05-02T00:16:22.528Z,61.24
2023-05-02T00:16:55.792Z,61.21
2023-05-02T00:17:28.797Z,61.20
2023-05-02T00:18:02.109Z,61.19
2023-05-02T00:18:35.561Z,61.21
2023-05-02T00:19:08.678Z,61.24
2023-05-02T00:19:41.894Z,61.27
2023-05-02T00:20:15.078Z,61.28
2023-05-02T00:20:48.308Z,61.25
2023-05-02T00:21:21.631Z,61.22
2023-05-02T00:21:54.808Z,61.23
2023-05-02T00:22:28.575Z,61.24
2023-05-02T00:23:01.916Z,61.23
2023-05-02T00:23:35.588Z,61.21
2023-05-02T00:24:08.752Z,61.22
2023-05-02T00:24:41.933Z,61.22
2023-05-02T00:25:17.373Z,61.22
2023-05-02T00:25:51.075Z,61.17
2023-05-02T00:26:24.529Z,61.19
2023-05-02T00:26:57.567Z,61.23
2023-05-02T00:27:31.802Z,61.26
2023-05-02T00:28:05.032Z,61.30
2023-05-02T00:28:38.162Z,61.33
2023-05-02T00:29:15.571Z,61.38
2023-05-02T00:29:48.646Z,61.41
2023-05-02T00:30:21.899Z,61.46
2023-05-02T00:30:55.071Z,61.50
2023-05-02T00:31:28.404Z,61.54
2023-05-02T00:32:01.916Z,61.57
2023-05-02T00:32:35.727Z,61.60
2023-05-02T00:33:09.066Z,61.60
2023-05-02T00:33:42.373Z,61.66
2023-05-02T00:34:15.633Z,61.72
2023-05-02T00:34:48.913Z,61.73
2023-05-02T00:35:22.054Z,61.78
2023-05-02T00:35:55.240Z,61.78
2023-05-02T00:36:28.644Z,61.76
2023-05-02T00:37:01.921Z,61.80
2023-05-02T00:37:35.531Z,61.80
2023-05-02T00:38:08.902Z,61.82
2023-05-02T00:38:42.072Z,61.77
2023-05-02T00:39:15.271Z,61.79
2023-05-02T00:39:48.434Z,61.79
2023-05-02T00:40:21.674Z,61.77
2023-05-02T00:40:54.771Z,61.78
2023-05-02T00:41:27.726Z,61.81
2023-05-02T00:42:01.724Z,61.84
2023-05-02T00:42:36.678Z,61.87
2023-05-02T00:43:09.919Z,61.94
2023-05-02T00:43:43.152Z,61.96
2023-05-02T00:44:16.737Z,61.99
2023-05-02T00:44:49.989Z,62.00
2023-05-02T00:45:23.491Z,62.05
2023-05-02T00:45:56.786Z,62.11
2023-05-02T00:46:30.153Z,62.13
2023-05-02T00:47:03.370Z,62.09
2023-05-02T00:47:36.779Z,62.10
2023-05-02T00:48:10.458Z,62.12
2023-05-02T00:48:45.337Z,62.17
2023-05-02T00:49:18.449Z,62.21
2023-05-02T00:49:51.772Z,62.23
2023-05-02T00:50:27.015Z,62.26
2023-05-02T00:51:02.865Z,62.31
2023-05-02T00:51:36.161Z,62.36
2023-05-02T00:52:09.433Z,62.34
2023-05-02T00:52:42.522Z,62.35
2023-05-02T00:53:15.881Z,62.39
2023-05-02T00:53:49.473Z,62.36
2023-05-02T00:54:22.818Z,62.38
2023-05-02T00:54:56.713Z,62.46
2023-05-02T00:55:29.933Z,62.50
2023-05-02T00:56:03.624Z,62.53
2023-05-02T00:56:37.192Z,62.55
2023-05-02T00:57:10.354Z,62.57
2023-05-02T00:57:43.878Z,62.64
2023-05-02T00:58:18.733Z,62.65
2023-05-02T00:58:52.108Z,62.70
2023-05-02T00:59:25.969Z,62.70
2023-05-02T00:59:59.446Z,62.73
2023-05-02T01:00:56.087Z,62.79
2023-05-02T01:01:37.162Z,62.82
2023-05-02T01:02:29.048Z,62.83
2023-05-02T01:03:41.372Z,62.90
2023-05-02T01:04:40.827Z,62.91
2023-05-02T01:05:21.360Z,62.93
2023-05-02T01:06:05.132Z,63.01
2023-05-02T01:06:53.507Z,63.05
2023-05-02T01:07:43.834Z,63.10
2023-05-02T01:08:16.919Z,62.95
2023-05-02T01:08:56.209Z,63.02
2023-05-02T01:09:35.974Z,63.07
2023-05-02T01:10:18.858Z,63.13
2023-05-02T01:11:07.256Z,62.99
2023-05-02T01:12:04.162Z,62.59
2023-05-02T01:12:46.033Z,62.45
2023-05-02T01:13:24.653Z,62.34
2023-05-02T01:13:59.839Z,62.31
2023-05-02T01:14:41.279Z,62.28
2023-05-02T01:15:19.447Z,62.26
2023-05-02T01:15:53.946Z,62.27
2023-05-02T01:16:28.483Z,62.30
2023-05-02T01:17:06.705Z,62.27
2023-05-02T01:17:41.700Z,62.25
2023-05-02T01:18:18.787Z,62.25
2023-05-02T01:18:52.677Z,62.24
2023-05-02T01:19:29.629Z,62.24
2023-05-02T01:20:05.239Z,62.23
2023-05-02T01:20:42.046Z,62.22
2023-05-02T01:21:15.322Z,62.24
2023-05-02T01:21:49.371Z,62.24
2023-05-02T01:22:24.594Z,62.23
2023-05-02T01:23:00.782Z,62.21
2023-05-02T01:23:53.470Z,62.20
2023-05-02T01:24:29.865Z,62.21
2023-05-02T01:25:18.003Z,62.23
2023-05-02T01:25:53.957Z,62.24
2023-05-02T01:26:29.904Z,62.22
2023-05-02T01:27:03.169Z,62.20
2023-05-02T01:27:55.122Z,62.21
2023-05-02T01:28:47.074Z,62.29
2023-05-02T01:29:20.862Z,62.38
2023-05-02T01:29:56.947Z,62.44
2023-05-02T01:30:33.626Z,62.53
2023-05-02T01:31:07.535Z,62.61
2023-05-02T01:31:42.339Z,62.66
2023-05-02T01:32:16.648Z,62.73
2023-05-02T01:32:51.827Z,62.71
2023-05-02T01:33:27.225Z,62.76
2023-05-02T01:34:01.089Z,62.77
2023-05-02T01:34:36.524Z,62.81
2023-05-02T01:35:11.414Z,62.88
2023-05-02T01:35:46.712Z,62.92
2023-05-02T01:36:19.979Z,62.98
2023-05-02T01:36:55.219Z,63.00
2023-05-02T01:37:31.058Z,63.00
2023-05-02T01:38:06.349Z,63.07
2023-05-02T01:38:40.196Z,63.11
2023-05-02T01:39:14.790Z,63.12
2023-05-02T01:39:50.071Z,63.18
2023-05-02T01:40:23.396Z,63.19
2023-05-02T01:40:58.161Z,63.15
2023-05-02T01:41:32.195Z,62.62
2023-05-02T01:42:05.577Z,62.70
2023-05-02T01:42:39.622Z,62.65
2023-05-02T01:43:16.622Z,62.68
2023-05-02T01:43:49.937Z,62.73
2023-05-02T01:44:23.762Z,62.79
2023-05-02T01:44:58.024Z,62.81
2023-05-02T01:45:31.483Z,62.87
2023-05-02T01:46:05.241Z,62.91
2023-05-02T01:46:40.216Z,62.98
2023-05-02T01:47:13.958Z,63.04
2023-05-02T01:47:48.980Z,63.04
2023-05-02T01:48:22.923Z,63.07
2023-05-02T01:48:58.315Z,63.12
2023-05-02T01:49:33.232Z,63.18
2023-05-02T01:50:08.343Z,63.16
2023-05-02T01:50:42.276Z,63.21
2023-05-02T01:51:18.912Z,63.27
2023-05-02T01:51:53.182Z,63.29
2023-05-02T01:52:27.613Z,63.30
2023-05-02T01:53:02.092Z,63.35
2023-05-02T01:53:35.844Z,63.40
2023-05-02T01:54:09.309Z,63.40
2023-05-02T01:54:42.912Z,63.38
2023-05-02T01:55:17.046Z,63.37
2023-05-02T01:55:51.159Z,63.40
2023-05-02T01:56:25.530Z,63.43
2023-05-02T01:56:58.856Z,63.37
2023-05-02T01:57:32.722Z,63.38
2023-05-02T01:58:06.840Z,63.43
2023-05-02T01:58:40.933Z,63.46
2023-05-02T01:59:16.729Z,63.39
2023-05-02T01:59:50.513Z,63.22
2023-05-02T02:00:25.110Z,63.21
2023-05-02T02:01:00.261Z,63.16
2023-05-02T02:01:35.656Z,63.11
2023-05-02T02:02:09.536Z,63.15
2023-05-02T02:02:43.896Z,63.15
2023-05-02T02:03:18.479Z,63.16
2023-05-02T02:03:52.950Z,63.18
2023-05-02T02:04:27.216Z,63.15
2023-05-02T02:05:01.561Z,63.17
2023-05-02T02:05:35.347Z,63.05
2023-05-02T02:06:09.398Z,63.04
2023-05-02T02:06:44.679Z,63.09
2023-05-02T02:07:18.023Z,63.15
2023-05-02T02:07:51.123Z,63.15
2023-05-02T02:08:25.097Z,63.17
2023-05-02T02:08:58.388Z,63.17
2023-05-02T02:09:31.764Z,63.18
2023-05-02T02:10:05.240Z,63.20
2023-05-02T02:10:41.309Z,63.26
2023-05-02T02:11:17.218Z,63.31
2023-05-02T02:11:54.100Z,63.32
2023-05-02T02:12:39.023Z,63.32
2023-05-02T02:13:19.014Z,63.36
2023-05-02T02:13:55.583Z,63.36
2023-05-02T02:14:32.686Z,63.13
2023-05-02T02:15:20.079Z,62.91
2023-05-02T02:15:58.075Z,63.04
2023-05-02T02:16:33.198Z,63.12
2023-05-02T02:17:12.568Z,63.18
2023-05-02T02:17:45.679Z,63.24
2023-05-02T02:18:21.942Z,63.31
2023-05-02T02:18:56.786Z,63.34
2023-05-02T02:19:30.440Z,63.32
2023-05-02T02:20:05.697Z,63.35
2023-05-02T02:20:40.858Z,63.35
2023-05-02T02:21:17.027Z,63.03
2023-05-02T02:21:51.343Z,63.12
2023-05-02T02:22:26.856Z,63.21
2023-05-02T02:23:02.068Z,63.32
2023-05-02T02:23:36.047Z,63.36
2023-05-02T02:24:10.085Z,63.25
2023-05-02T02:24:44.073Z,62.98
2023-05-02T02:25:17.927Z,62.82
2023-05-02T02:25:51.542Z,62.76
2023-05-02T02:26:24.864Z,62.72
2023-05-02T02:26:58.196Z,62.72
2023-05-02T02:27:31.459Z,62.73
2023-05-02T02:28:04.969Z,62.77
2023-05-02T02:28:38.698Z,62.76
2023-05-02T02:29:12.436Z,62.74
2023-05-02T02:29:45.782Z,62.72
2023-05-02T02:30:18.872Z,62.70
2023-05-02T02:30:52.087Z,62.73
2023-05-02T02:31:30.577Z,62.71
2023-05-02T02:32:03.912Z,62.78
2023-05-02T02:32:37.073Z,62.74
2023-05-02T02:33:10.279Z,62.77
2023-05-02T02:33:43.958Z,62.87
2023-05-02T02:34:17.070Z,62.82
2023-05-02T02:34:50.668Z,62.77
2023-05-02T02:35:23.969Z,62.78
2023-05-02T02:36:13.602Z,62.81
2023-05-02T02:36:46.851Z,62.92
2023-05-02T02:37:20.804Z,62.91
2023-05-02T02:38:10.761Z,62.86
2023-05-02T02:39:02.810Z,62.87
2023-05-02T02:39:47.972Z,62.84
2023-05-02T02:40:31.759Z,62.92
2023-05-02T02:41:17.261Z,63.03
2023-05-02T02:41:56.089Z,62.90
2023-05-02T02:42:45.631Z,62.91
2023-05-02T02:43:27.809Z,62.91
2023-05-02T02:44:14.457Z,62.93
2023-05-02T02:44:53.679Z,62.95
2023-05-02T02:45:36.789Z,62.95
2023-05-02T02:46:19.144Z,63.04
2023-05-02T02:47:11.419Z,62.96
2023-05-02T02:47:49.582Z,62.95
2023-05-02T02:48:35.107Z,62.95
2023-05-02T02:49:27.229Z,63.00
2023-05-02T02:50:27.059Z,63.09
2023-05-02T02:51:00.247Z,63.19
2023-05-02T02:51:38.838Z,63.27
2023-05-02T02:52:21.380Z,63.40
2023-05-02T02:53:00.999Z,63.45
2023-05-02T02:53:52.960Z,63.44
2023-05-02T02:54:31.951Z,63.55
2023-05-02T02:55:11.239Z,63.60
2023-05-02T02:55:53.680Z,63.68
2023-05-02T02:56:35.032Z,63.64
2023-05-02T02:57:15.486Z,63.61
2023-05-02T02:58:08.946Z,63.68
2023-05-02T02:58:42.021Z,63.71
2023-05-02T02:59:25.197Z,63.76
2023-05-02T03:00:02.149Z,63.86
2023-05-02T03:00:35.939Z,63.96
2023-05-02T03:01:12.610Z,64.02
2023-05-02T03:01:49.773Z,64.15
2023-05-02T03:02:27.533Z,64.16
2023-05-02T03:03:00.875Z,64.20
2023-05-02T03:03:34.712Z,64.25
2023-05-02T03:04:09.302Z,64.28
2023-05-02T03:04:43.655Z,64.31
2023-05-02T03:05:17.166Z,64.35
2023-05-02T03:05:50.800Z,64.41
2023-05-02T03:06:24.414Z,64.50
2023-05-02T03:06:57.734Z,64.57
2023-05-02T03:07:31.714Z,64.60
2023-05-02T03:08:05.183Z,64.62
2023-05-02T03:08:42.164Z,64.64
2023-05-02T03:09:18.586Z,64.70
2023-05-02T03:09:51.820Z,64.66
2023-05-02T03:10:25.078Z,64.61
2023-05-02T03:10:58.235Z,64.72
2023-05-02T03:11:31.424Z,64.85
2023-05-02T03:12:04.840Z,64.83
2023-05-02T03:12:40.032Z,64.74
2023-05-02T03:13:13.334Z,64.72
2023-05-02T03:13:47.519Z,64.77
2023-05-02T03:14:20.779Z,64.73
2023-05-02T03:14:57.417Z,64.65
2023-05-02T03:15:33.371Z,64.71
2023-05-02T03:16:12.436Z,64.72
2023-05-02T03:16:45.719Z,64.72
2023-05-02T03:17:19.003Z,64.74
2023-05-02T03:17:52.171Z,64.80
2023-05-02T03:18:25.401Z,64.82
2023-05-02T03:18:58.703Z,64.84
2023-05-02T03:19:32.124Z,64.94
2023-05-02T03:20:05.715Z,64.99
2023-05-02T03:20:39.003Z,65.06
2023-05-02T03:21:12.299Z,65.11
2023-05-02T03:21:46.306Z,64.92
2023-05-02T03:22:19.576Z,64.94
2023-05-02T03:22:53.129Z,64.87
2023-05-02T03:23:26.241Z,64.83
2023-05-02T03:24:03.034Z,64.73
2023-05-02T03:24:36.360Z,64.76
2023-05-02T03:25:09.665Z,64.54
2023-05-02T03:25:43.098Z,64.51
2023-05-02T03:26:16.949Z,64.64
2023-05-02T03:26:50.368Z,64.76
2023-05-02T03:27:23.366Z,64.85
2023-05-02T03:27:57.680Z,64.87
2023-05-02T03:28:30.922Z,64.88
2023-05-02T03:29:04.164Z,64.92
2023-05-02T03:29:37.210Z,64.98
2023-05-02T03:30:10.457Z,65.07
2023-05-02T03:30:43.441Z,65.12
2023-05-02T03:31:16.755Z,65.15
2023-05-02T03:31:50.143Z,65.22
2023-05-02T03:32:23.340Z,65.28
2023-05-02T03:32:57.302Z,65.36
2023-05-02T03:33:30.548Z,65.36
2023-05-02T03:34:03.684Z,65.29
2023-05-02T03:34:37.162Z,65.32
2023-05-02T03:35:10.508Z,65.40
2023-05-02T03:35:43.680Z,65.48
2023-05-02T03:36:16.957Z,65.47
2023-05-02T03:36:50.281Z,65.47
2023-05-02T03:37:23.469Z,65.50
2023-05-02T03:37:56.805Z,65.58
2023-05-02T03:38:30.686Z,65.65
2023-05-02T03:39:03.934Z,65.69
2023-05-02T03:39:37.169Z,65.57
2023-05-02T03:40:10.490Z,65.45
2023-05-02T03:40:43.928Z,65.48
2023-05-02T03:41:17.158Z,65.55
2023-05-02T03:41:50.177Z,65.60
2023-05-02T03:42:23.283Z,65.68
2023-05-02T03:42:56.355Z,65.79
2023-05-02T03:43:29.520Z,65.90
2023-05-02T03:44:02.760Z,65.94
2023-05-02T03:44:35.974Z,65.98
2023-05-02T03:45:09.399Z,66.04
2023-05-02T03:45:42.641Z,66.09
2023-05-02T03:46:16.034Z,66.07
2023-05-02T03:46:49.339Z,66.05
2023-05-02T03:47:22.660Z,66.10
2023-05-02T03:47:56.143Z,66.19
2023-05-02T03:48:29.622Z,66.29
2023-05-02T03:49:02.716Z,66.32
2023-05-02T03:49:36.417Z,66.32
2023-05-02T03:50:09.862Z,66.35
2023-05-02T03:50:43.855Z,66.40
2023-05-02T03:51:17.541Z,66.51
2023-05-02T03:51:50.853Z,66.60
2023-05-02T03:52:23.940Z,66.63
2023-05-02T03:52:57.343Z,66.66
2023-05-02T03:53:31.805Z,66.65
2023-05-02T03:54:05.110Z,66.63
2023-05-02T03:54:38.352Z,66.61
2023-05-02T03:55:11.952Z,66.56
2023-05-02T03:55:45.986Z,66.54
2023-05-02T03:56:22.056Z,66.61
2023-05-02T03:56:55.358Z,66.69
2023-05-02T03:57:31.283Z,66.67
2023-05-02T03:58:04.687Z,66.74
2023-05-02T03:58:37.906Z,66.83
2023-05-02T03:59:11.352Z,66.91
2023-05-02T03:59:45.999Z,66.96
2023-05-02T04:00:19.648Z,66.95
2023-05-02T04:00:55.651Z,66.93
2023-05-02T04:01:29.142Z,66.80
2023-05-02T04:02:02.323Z,66.80
2023-05-02T04:02:35.825Z,66.78
2023-05-02T04:03:09.272Z,66.71
2023-05-02T04:03:43.186Z,66.72
2023-05-02T04:04:16.755Z,66.73
2023-05-02T04:04:49.957Z,66.76
2023-05-02T04:05:23.183Z,66.80
2023-05-02T04:05:56.461Z,66.82
2023-05-02T04:06:30.521Z,66.86
2023-05-02T04:07:04.096Z,66.92
2023-05-02T04:07:37.232Z,67.01
2023-05-02T04:08:11.009Z,67.05
2023-05-02T04:08:44.134Z,67.08
2023-05-02T04:09:17.434Z,67.11
2023-05-02T04:09:50.606Z,67.06
2023-05-02T04:10:23.643Z,66.67
2023-05-02T04:10:56.757Z,66.29
2023-05-02T04:11:29.986Z,66.46
2023-05-02T04:12:02.949Z,66.65
2023-05-02T04:12:36.434Z,66.62
2023-05-02T04:13:09.602Z,66.52
2023-05-02T04:13:42.906Z,66.65
2023-05-02T04:14:16.046Z,66.79
2023-05-02T04:14:49.380Z,66.88
2023-05-02T04:15:22.610Z,66.97
2023-05-02T04:15:55.985Z,66.97
2023-05-02T04:16:29.758Z,66.95
2023-05-02T04:17:02.941Z,66.98
2023-05-02T04:17:36.228Z,66.94
2023-05-02T04:18:09.493Z,66.89
2023-05-02T04:18:42.581Z,66.93
2023-05-02T04:19:16.554Z,66.93
2023-05-02T04:19:49.718Z,66.94
2023-05-02T04:20:23.035Z,67.01
2023-05-02T04:20:56.342Z,67.07
2023-05-02T04:21:29.483Z,67.10
2023-05-02T04:22:03.633Z,67.09
2023-05-02T04:22:36.835Z,67.09
2023-05-02T04:23:10.098Z,67.09
2023-05-02T04:23:43.369Z,67.12
2023-05-02T04:24:16.452Z,67.15
2023-05-02T04:24:49.662Z,67.12
2023-05-02T04:25:22.869Z,67.11
2023-05-02T04:25:56.832Z,67.19
2023-05-02T04:26:30.139Z,67.24
2023-05-02T04:27:03.388Z,67.28
2023-05-02T04:27:36.878Z,67.16
2023-05-02T04:28:10.244Z,67.11
2023-05-02T04:28:43.484Z,67.14
2023-05-02T04:29:16.636Z,67.15
2023-05-02T04:29:50.606Z,67.19
2023-05-02T04:30:23.760Z,67.17
2023-05-02T04:30:57.767Z,67.16
2023-05-02T04:31:33.816Z,67.17
2023-05-02T04:32:07.299Z,67.18
2023-05-02T04:32:40.456Z,67.22
2023-05-02T04:33:13.634Z,67.25
2023-05-02T04:33:49.046Z,67.27
2023-05-02T04:34:22.218Z,67.27
2023-05-02T04:34:56.008Z,67.25
2023-05-02T04:35:29.176Z,67.19
2023-05-02T04:36:02.530Z,67.11
2023-05-02T04:36:36.006Z,67.07
2023-05-02T04:37:09.295Z,67.07
2023-05-02T04:37:42.404Z,66.91
2023-05-02T04:38:15.921Z,66.87
2023-05-02T04:38:49.019Z,66.80
2023-05-02T04:39:22.188Z,66.88
2023-05-02T04:39:55.498Z,66.73
2023-05-02T04:40:29.101Z,66.82
2023-05-02T04:41:08.801Z,66.85
2023-05-02T04:41:43.428Z,66.84
2023-05-02T04:42:16.515Z,66.67
2023-05-02T04:42:49.876Z,65.61
2023-05-02T04:43:24.605Z,65.17
2023-05-02T04:43:58.743Z,64.43
2023-05-02T04:44:31.873Z,64.66
2023-05-02T04:45:05.311Z,64.89
2023-05-02T04:45:38.610Z,64.51
2023-05-02T04:46:12.018Z,64.61
2023-05-02T04:46:45.432Z,64.88
2023-05-02T04:47:18.828Z,65.03
2023-05-02T04:47:52.388Z,65.23
2023-05-02T04:48:25.830Z,65.40
2023-05-02T04:48:59.419Z,65.07
2023-05-02T04:49:32.719Z,65.02
2023-05-02T04:50:06.639Z,65.19
2023-05-02T04:50:39.928Z,65.42
2023-05-02T04:51:14.859Z,65.38
2023-05-02T04:51:49.865Z,65.59
2023-05-02T04:52:23.168Z,65.73
2023-05-02T04:52:56.451Z,65.43
2023-05-02T04:53:29.792Z,65.42
2023-05-02T04:54:03.071Z,65.28
2023-05-02T04:54:36.357Z,64.85
2023-05-02T04:55:09.599Z,65.08
2023-05-02T04:55:43.322Z,64.85
2023-05-02T04:56:16.562Z,64.96
2023-05-02T04:56:49.757Z,64.71
2023-05-02T04:57:23.426Z,64.72
2023-05-02T04:57:57.130Z,64.88
2023-05-02T04:58:30.640Z,64.77
2023-05-02T04:59:03.926Z,64.89
2023-05-02T04:59:37.433Z,65.06
2023-05-02T05:00:11.620Z,65.23
2023-05-02T05:00:44.864Z,65.39
2023-05-02T05:01:18.487Z,65.53
2023-05-02T05:01:51.799Z,64.90
2023-05-02T05:02:26.240Z,64.53
2023-05-02T05:03:01.702Z,64.63
2023-05-02T05:03:35.479Z,64.39
2023-05-02T05:04:09.038Z,64.26
2023-05-02T05:04:42.292Z,64.34
2023-05-02T05:05:15.662Z,64.32
2023-05-02T05:05:48.987Z,64.49
2023-05-02T05:06:22.898Z,64.68
2023-05-02T05:06:56.412Z,64.56
2023-05-02T05:07:29.553Z,64.41
2023-05-02T05:08:02.789Z,64.44
2023-05-02T05:08:36.053Z,64.56
2023-05-02T05:09:09.308Z,64.79
2023-05-02T05:09:42.652Z,64.96
2023-05-02T05:10:16.110Z,65.01
2023-05-02T05:10:50.899Z,65.02
2023-05-02T05:11:24.425Z,65.04
2023-05-02T05:11:57.717Z,64.96
2023-05-02T05:12:31.087Z,64.87
2023-05-02T05:13:04.834Z,64.68
2023-05-02T05:13:37.927Z,64.67
2023-05-02T05:14:11.130Z,64.83
2023-05-02T05:14:44.734Z,64.93
2023-05-02T05:15:17.842Z,64.91
2023-05-02T05:15:51.538Z,65.12
2023-05-02T05:16:24.926Z,65.21
2023-05-02T05:16:58.762Z,65.11
2023-05-02T05:17:32.095Z,65.05
2023-05-02T05:18:05.280Z,64.93
2023-05-02T05:18:41.583Z,64.90
2023-05-02T05:19:14.745Z,65.12
2023-05-02T05:19:48.057Z,65.30
2023-05-02T05:20:21.368Z,65.43
2023-05-02T05:20:54.559Z,65.43
2023-05-02T05:21:27.779Z,65.10
2023-05-02T05:22:01.154Z,65.31
2023-05-02T05:22:38.685Z,65.48
2023-05-02T05:23:11.869Z,65.52
2023-05-02T05:23:46.391Z,65.52
2023-05-02T05:24:19.852Z,65.57
2023-05-02T05:24:56.163Z,65.62
2023-05-02T05:25:29.427Z,65.67
2023-05-02T05:26:12.211Z,65.75
2023-05-02T05:26:45.436Z,65.85
2023-05-02T05:27:18.654Z,65.92
2023-05-02T05:27:52.740Z,65.91
2023-05-02T05:28:27.484Z,65.85
2023-05-02T05:29:00.686Z,65.82
2023-05-02T05:29:33.823Z,65.88
2023-05-02T05:30:09.071Z,65.93
2023-05-02T05:30:42.231Z,66.02
2023-05-02T05:31:17.401Z,66.10
2023-05-02T05:31:50.681Z,66.16
2023-05-02T05:32:24.511Z,66.19
2023-05-02T05:32:58.877Z,66.28
2023-05-02T05:33:32.335Z,66.36
2023-05-02T05:34:05.698Z,66.42
2023-05-02T05:34:39.265Z,66.46
2023-05-02T05:35:12.488Z,66.49
2023-05-02T05:35:46.033Z,66.48
2023-05-02T05:36:19.700Z,66.52
2023-05-02T05:36:54.138Z,66.59
2023-05-02T05:37:27.300Z,66.62
2023-05-02T05:38:00.502Z,66.65
2023-05-02T05:38:33.710Z,66.68
2023-05-02T05:39:07.495Z,66.72
2023-05-02T05:39:40.889Z,66.77
2023-05-02T05:40:14.428Z,66.81
2023-05-02T05:40:49.701Z,66.82
2023-05-02T05:41:23.343Z,66.58
2023-05-02T05:41:57.706Z,66.55
2023-05-02T05:42:31.100Z,66.59
2023-05-02T05:43:04.145Z,66.62
2023-05-02T05:43:38.386Z,66.65
2023-05-02T05:44:11.541Z,66.62
2023-05-02T05:44:44.659Z,66.58
2023-05-02T05:45:19.837Z,66.61
2023-05-02T05:45:53.619Z,66.61
2023-05-02T05:46:26.809Z,66.12
2023-05-02T05:47:00.190Z,65.84
2023-05-02T05:47:33.453Z,65.40
2023-05-02T05:48:06.729Z,65.54
2023-05-02T05:48:40.047Z,65.62
2023-05-02T05:49:13.810Z,65.53
2023-05-02T05:49:46.781Z,65.31
2023-05-02T05:50:19.823Z,65.22
2023-05-02T05:50:53.129Z,65.27
2023-05-02T05:51:28.139Z,65.27
2023-05-02T05:52:01.366Z,65.28
2023-05-02T05:52:34.702Z,65.22
2023-05-02T05:53:07.894Z,65.12
2023-05-02T05:53:41.079Z,64.78
2023-05-02T05:54:14.277Z,64.39
2023-05-02T05:54:47.346Z,64.60
2023-05-02T05:55:20.541Z,64.67
2023-05-02T05:55:53.913Z,64.71
2023-05-02T05:56:27.298Z,64.79
2023-05-02T05:57:01.252Z,64.88
2023-05-02T05:57:34.559Z,64.82
2023-05-02T05:58:08.277Z,64.90
2023-05-02T05:58:42.997Z,64.61
2023-05-02T05:59:16.184Z,64.21
2023-05-02T05:59:49.842Z,64.13
2023-05-02T06:00:23.140Z,64.02
2023-05-02T06:00:56.409Z,64.00
2023-05-02T06:01:29.700Z,64.06
2023-05-02T06:02:03.005Z,64.14
2023-05-02T06:02:36.708Z,63.97
2023-05-02T06:03:10.204Z,63.97
2023-05-02T06:03:43.896Z,64.05
2023-05-02T06:04:17.358Z,63.91
2023-05-02T06:04:50.799Z,63.78
2023-05-02T06:05:24.165Z,63.81
2023-05-02T06:05:57.554Z,63.81
2023-05-02T06:06:32.175Z,63.78
2023-05-02T06:07:05.239Z,63.91
2023-05-02T06:07:38.618Z,63.70
2023-05-02T06:08:11.766Z,63.67
2023-05-02T06:08:44.944Z,63.81
2023-05-02T06:09:18.070Z,63.92
2023-05-02T06:09:51.263Z,63.90
2023-05-02T06:10:24.522Z,63.80
2023-05-02T06:10:57.660Z,63.75
2023-05-02T06:11:30.941Z,63.67
2023-05-02T06:12:04.167Z,63.68
2023-05-02T06:12:37.407Z,63.74
2023-05-02T06:13:10.518Z,63.74
2023-05-02T06:13:43.802Z,63.82
2023-05-02T06:14:16.910Z,63.85
2023-05-02T06:14:50.272Z,63.77
2023-05-02T06:15:23.362Z,63.82
2023-05-02T06:16:00.456Z,63.86
2023-05-02T06:16:33.719Z,63.86
2023-05-02T06:17:07.079Z,63.91
2023-05-02T06:17:40.400Z,63.90
2023-05-02T06:18:14.157Z,63.92
2023-05-02T06:18:47.305Z,63.98
2023-05-02T06:19:20.319Z,63.94
2023-05-02T06:19:53.538Z,63.98
2023-05-02T06:20:26.951Z,64.04
2023-05-02T06:21:09.365Z,64.07
2023-05-02T06:21:42.633Z,64.03
2023-05-02T06:22:15.791Z,64.07
2023-05-02T06:22:49.033Z,64.10
2023-05-02T06:23:22.161Z,64.10
2023-05-02T06:23:55.198Z,64.05
2023-05-02T06:24:28.514Z,64.10
2023-05-02T06:25:01.789Z,64.14
2023-05-02T06:25:37.522Z,64.18
2023-05-02T06:26:10.652Z,64.20
2023-05-02T06:26:46.605Z,64.21
2023-05-02T06:27:19.830Z,64.29
2023-05-02T06:27:53.157Z,64.19
2023-05-02T06:28:26.505Z,64.15
2023-05-02T06:28:59.696Z,64.15
2023-05-02T06:29:35.937Z,64.13
2023-05-02T06:30:09.331Z,64.15
2023-05-02T06:30:42.488Z,64.17
2023-05-02T06:31:16.641Z,64.19
2023-05-02T06:31:51.437Z,64.37
2023-05-02T06:32:24.642Z,64.25
2023-05-02T06:32:57.894Z,64.25
2023-05-02T06:33:31.696Z,64.26
2023-05-02T06:34:04.840Z,64.24
2023-05-02T06:34:37.970Z,64.21
2023-05-02T06:35:12.160Z,64.18
2023-05-02T06:35:51.208Z,64.12
2023-05-02T06:36:24.415Z,64.09
2023-05-02T06:36:57.668Z,64.04
2023-05-02T06:37:37.004Z,64.03
2023-05-02T06:38:10.208Z,64.01
2023-05-02T06:38:43.504Z,63.91
2023-05-02T06:39:16.660Z,63.88
2023-05-02T06:39:49.893Z,63.86
2023-05-02T06:40:23.168Z,63.81
2023-05-02T06:40:56.510Z,63.78
2023-05-02T06:41:29.811Z,63.74
2023-05-02T06:42:03.296Z,63.70
2023-05-02T06:42:36.522Z,63.69
2023-05-02T06:43:09.784Z,63.73
2023-05-02T06:43:43.163Z,63.68
2023-05-02T06:44:16.784Z,63.64
2023-05-02T06:44:51.640Z,63.65
2023-05-02T06:45:24.918Z,63.63
2023-05-02T06:45:58.960Z,63.61
2023-05-02T06:46:32.404Z,63.72
2023-05-02T06:47:08.688Z,63.74
2023-05-02T06:47:41.959Z,63.77
2023-05-02T06:48:15.637Z,63.72
2023-05-02T06:48:48.817Z,63.69
2023-05-02T06:49:22.423Z,63.70
2023-05-02T06:49:56.193Z,63.66
2023-05-02T06:50:30.004Z,63.64
2023-05-02T06:51:04.425Z,63.65
2023-05-02T06:51:37.742Z,63.69
2023-05-02T06:52:10.951Z,63.65
2023-05-02T06:52:44.331Z,63.62
2023-05-02T06:53:17.522Z,63.61
2023-05-02T06:53:50.983Z,63.62
2023-05-02T06:54:24.274Z,63.59
2023-05-02T06:54:57.400Z,63.62
2023-05-02T06:55:30.584Z,63.62
2023-05-02T06:56:03.749Z,63.57
2023-05-02T06:56:36.961Z,63.48
2023-05-02T06:57:11.222Z,63.49
2023-05-02T06:57:44.433Z,63.42
2023-05-02T06:58:17.618Z,63.42
2023-05-02T06:58:51.270Z,63.36
2023-05-02T06:59:24.634Z,63.38
2023-05-02T06:59:58.091Z,63.32
2023-05-02T07:00:31.615Z,63.30
2023-05-02T07:01:04.890Z,63.26
2023-05-02T07:01:38.312Z,63.28
2023-05-02T07:02:11.752Z,63.28
2023-05-02T07:02:46.002Z,63.17
2023-05-02T07:03:19.124Z,63.13
2023-05-02T07:03:52.625Z,63.11
2023-05-02T07:04:26.131Z,63.09
2023-05-02T07:04:59.404Z,63.03
2023-05-02T07:05:32.605Z,62.98
2023-05-02T07:06:05.942Z,62.98
2023-05-02T07:06:39.176Z,62.90
2023-05-02T07:07:12.394Z,62.86
2023-05-02T07:07:45.738Z,62.86
2023-05-02T07:08:18.921Z,62.81
2023-05-02T07:08:52.235Z,62.80
2023-05-02T07:09:25.526Z,62.82
2023-05-02T07:09:58.847Z,62.80
2023-05-02T07:10:32.348Z,62.73
2023-05-02T07:11:05.707Z,62.74
2023-05-02T07:11:39.008Z,62.75
2023-05-02T07:12:11.993Z,62.88
2023-05-02T07:12:45.139Z,62.82
2023-05-02T07:13:18.468Z,62.79
2023-05-02T07:13:51.703Z,62.75
2023-05-02T07:14:24.948Z,62.79
2023-05-02T07:14:58.431Z,62.78
2023-05-02T07:15:31.690Z,62.79
2023-05-02T07:16:05.171Z,62.73
2023-05-02T07:16:38.494Z,62.71
2023-05-02T07:17:11.718Z,62.70
2023-05-02T07:17:44.901Z,62.70
2023-05-02T07:18:18.228Z,62.71
2023-05-02T07:18:51.539Z,62.71
2023-05-02T07:19:25.126Z,62.70
2023-05-02T07:19:58.478Z,62.68
2023-05-02T07:20:31.859Z,62.63
2023-05-02T07:21:05.248Z,62.57
2023-05-02T07:21:38.567Z,62.60
2023-05-02T07:22:11.673Z,62.59
2023-05-02T07:22:44.628Z,62.58
2023-05-02T07:23:18.006Z,62.63
2023-05-02T07:23:51.381Z,62.64
2023-05-02T07:24:24.440Z,62.64
2023-05-02T07:25:01.850Z,62.62
2023-05-02T07:25:35.222Z,62.65
2023-05-02T07:26:08.449Z,62.63
2023-05-02T07:26:41.892Z,62.60
2023-05-02T07:27:15.055Z,62.55